createdAt,value
2022-10-30T00:01:35.594Z,48.20
2022-10-30T00:04:04.806Z,48.58
2022-10-30T00:06:34.004Z,49.08
2022-10-30T00:09:03.035Z,49.65
2022-10-30T00:11:32.181Z,46.33
2022-10-30T00:14:01.376Z,45.58
2022-10-30T00:16:30.954Z,46.72
2022-10-30T00:19:00.214Z,45.78
2022-10-30T00:21:29.364Z,46.90
2022-10-30T00:23:58.412Z,47.80
2022-10-30T00:26:28.983Z,44.38
2022-10-30T00:28:59.098Z,45.75
2022-10-30T00:31:28.472Z,45.78
2022-10-30T00:33:57.857Z,43.15
2022-10-30T00:36:26.982Z,44.30
2022-10-30T00:38:56.082Z,42.97
2022-10-30T00:41:26.552Z,42.15
2022-10-30T00:43:55.673Z,42.20
2022-10-30T00:46:41.587Z,41.85
2022-10-30T00:49:18.659Z,42.80
2022-10-30T00:51:53.615Z,42.67
2022-10-30T00:54:24.110Z,43.00
2022-10-30T00:56:53.778Z,41.85
2022-10-30T00:59:31.857Z,39.75
2022-10-30T01:02:03.981Z,39.70
2022-10-30T01:04:37.758Z,40.15
2022-10-30T01:07:18.208Z,42.72
2022-10-30T01:09:49.380Z,36.33
2022-10-30T01:12:18.933Z,39.53
2022-10-30T01:14:57.540Z,39.30
2022-10-30T01:17:49.151Z,37.97
2022-10-30T01:20:46.657Z,42.97
2022-10-30T01:23:21.314Z,41.87
2022-10-30T01:26:15.983Z,37.28
2022-10-30T01:29:28.056Z,40.30
2022-10-30T01:32:41.145Z,40.83
2022-10-30T01:35:29.631Z,37.00
2022-10-30T01:38:09.041Z,36.05
2022-10-30T01:40:39.178Z,37.47
2022-10-30T01:43:10.223Z,33.00
2022-10-30T01:46:18.939Z,33.78
2022-10-30T01:49:07.505Z,31.67
2022-10-30T01:51:46.476Z,30.83
2022-10-30T01:54:48.684Z,31.17
2022-10-30T01:57:57.508Z,31.73
2022-10-30T02:00:28.021Z,31.20
2022-10-30T02:02:57.665Z,33.53
2022-10-30T02:05:43.637Z,31.42
2022-10-30T02:08:13.055Z,30.58
2022-10-30T02:10:46.225Z,29.88
2022-10-30T02:13:15.831Z,30.30
2022-10-30T02:15:46.505Z,31.00
2022-10-30T02:18:15.674Z,30.85
2022-10-30T02:20:45.004Z,28.58
2022-10-30T02:23:17.737Z,32.53
2022-10-30T02:25:47.702Z,29.85
2022-10-30T02:28:16.852Z,30.80
2022-10-30T02:30:46.283Z,29.10
2022-10-30T02:33:15.430Z,29.30
2022-10-30T02:35:44.662Z,29.52
2022-10-30T02:38:13.838Z,29.58
2022-10-30T02:40:43.048Z,27.33
2022-10-30T02:43:27.514Z,30.15
2022-10-30T02:45:56.582Z,28.17
2022-10-30T02:48:25.674Z,30.10
2022-10-30T02:50:54.779Z,29.55
2022-10-30T02:53:23.951Z,29.55
2022-10-30T02:55:53.018Z,28.20
2022-10-30T02:58:22.169Z,29.73
2022-10-30T03:00:51.355Z,29.00
2022-10-30T03:03:23.169Z,29.83
2022-10-30T03:05:53.327Z,28.52
2022-10-30T03:08:22.426Z,28.65
2022-10-30T03:10:51.510Z,30.25
2022-10-30T03:13:20.560Z,29.63
2022-10-30T03:15:49.603Z,27.63
2022-10-30T03:18:18.728Z,27.63
2022-10-30T03:20:47.790Z,29.35
2022-10-30T03:23:16.849Z,29.25
2022-10-30T03:25:46.049Z,28.27
2022-10-30T03:28:15.122Z,27.83
2022-10-30T03:30:44.226Z,28.67
2022-10-30T03:33:13.389Z,27.90
2022-10-30T03:35:44.361Z,27.02
2022-10-30T03:38:14.845Z,26.02
2022-10-30T03:40:43.914Z,24.42
2022-10-30T03:43:13.106Z,24.77
2022-10-30T03:45:47.003Z,25.33
2022-10-30T03:48:17.354Z,25.08
2022-10-30T03:50:47.318Z,25.63
2022-10-30T03:53:17.750Z,24.33
2022-10-30T03:55:46.898Z,25.80
2022-10-30T03:58:16.033Z,24.08
2022-10-30T04:00:45.314Z,25.00
2022-10-30T04:03:14.470Z,24.52
2022-10-30T04:05:43.841Z,22.75
2022-10-30T04:08:16.622Z,22.23
2022-10-30T04:10:48.415Z,22.10
2022-10-30T04:13:21.336Z,22.55
2022-10-30T04:15:55.943Z,21.92
2022-10-30T04:18:27.746Z,23.45
2022-10-30T04:20:57.385Z,20.92
2022-10-30T04:23:26.566Z,20.52
2022-10-30T04:25:55.953Z,18.67
2022-10-30T04:28:25.141Z,20.60
2022-10-30T04:30:54.290Z,20.40
2022-10-30T04:33:23.526Z,22.60
2022-10-30T04:35:52.710Z,21.85
2022-10-30T04:38:21.880Z,20.65
2022-10-30T04:40:51.131Z,20.90
2022-10-30T04:43:20.948Z,21.13
2022-10-30T04:45:50.132Z,20.98
2022-10-30T04:48:20.726Z,20.25
2022-10-30T04:50:49.920Z,20.73
2022-10-30T04:53:22.069Z,19.40
2022-10-30T04:55:56.061Z,19.15
2022-10-30T04:58:25.411Z,20.05
2022-10-30T05:00:57.723Z,19.38
2022-10-30T05:03:29.505Z,17.98
2022-10-30T05:06:21.852Z,18.63
2022-10-30T05:08:52.142Z,19.25
2022-10-30T05:11:21.525Z,18.05
2022-10-30T05:13:50.952Z,17.83
2022-10-30T05:16:20.209Z,18.15
2022-10-30T05:18:49.425Z,19.10
2022-10-30T05:21:18.560Z,18.67
2022-10-30T05:23:47.773Z,19.15
2022-10-30T05:26:17.211Z,18.92
2022-10-30T05:28:46.355Z,18.45
2022-10-30T05:31:15.515Z,18.38
2022-10-30T05:33:44.661Z,17.73
2022-10-30T05:36:13.816Z,18.10
2022-10-30T05:38:42.964Z,20.17
2022-10-30T05:41:12.058Z,17.90
2022-10-30T05:43:42.244Z,18.10
2022-10-30T05:46:11.407Z,17.45
2022-10-30T05:48:40.688Z,17.42
2022-10-30T05:51:09.855Z,18.38
2022-10-30T05:53:38.997Z,17.17
2022-10-30T05:56:08.410Z,17.63
2022-10-30T05:58:38.255Z,17.83
2022-10-30T06:01:09.403Z,19.55
2022-10-30T06:03:38.609Z,17.92
2022-10-30T06:06:08.240Z,18.75
2022-10-30T06:08:37.460Z,18.55
2022-10-30T06:11:07.718Z,19.15
2022-10-30T06:13:36.909Z,18.48
2022-10-30T06:16:06.456Z,19.13
2022-10-30T06:18:35.574Z,19.00
2022-10-30T06:21:04.791Z,18.58
2022-10-30T06:23:34.153Z,18.38
2022-10-30T06:26:03.271Z,18.15
2022-10-30T06:28:32.529Z,18.52
2022-10-30T06:31:01.656Z,17.77
2022-10-30T06:33:30.838Z,18.00
2022-10-30T06:35:59.996Z,19.40
2022-10-30T06:38:29.281Z,20.58
2022-10-30T06:40:58.550Z,19.25
2022-10-30T06:43:28.114Z,19.00
2022-10-30T06:46:00.267Z,18.48
2022-10-30T06:48:29.692Z,18.15
2022-10-30T06:51:00.575Z,19.13
2022-10-30T06:53:29.879Z,19.70
2022-10-30T06:56:06.277Z,17.10
2022-10-30T06:58:39.980Z,17.70
2022-10-30T07:01:09.953Z,17.95
2022-10-30T07:03:39.098Z,18.77
2022-10-30T07:06:08.751Z,18.05
2022-10-30T07:08:37.972Z,18.60
2022-10-30T07:11:07.202Z,18.88
2022-10-30T07:13:36.836Z,16.67
2022-10-30T07:16:06.270Z,18.08
2022-10-30T07:18:35.414Z,17.52
2022-10-30T07:21:04.592Z,18.30
2022-10-30T07:23:33.820Z,17.75
2022-10-30T07:26:04.381Z,17.80
2022-10-30T07:28:33.767Z,17.40
2022-10-30T07:31:03.417Z,17.35
2022-10-30T07:33:32.577Z,16.52
2022-10-30T07:36:04.881Z,18.58
2022-10-30T07:38:34.028Z,18.95
2022-10-30T07:41:03.170Z,17.95
2022-10-30T07:43:32.339Z,17.75
2022-10-30T07:46:02.144Z,17.92
2022-10-30T07:48:31.357Z,18.55
2022-10-30T07:51:00.562Z,18.20
2022-10-30T07:53:30.853Z,17.50
2022-10-30T07:56:00.192Z,16.15
2022-10-30T07:58:29.327Z,17.33
2022-10-30T08:00:58.478Z,18.98
2022-10-30T08:03:27.756Z,17.48
2022-10-30T08:05:57.081Z,17.23
2022-10-30T08:08:26.333Z,17.17
2022-10-30T08:10:55.492Z,17.45
2022-10-30T08:13:24.649Z,18.05
2022-10-30T08:15:53.782Z,17.05
2022-10-30T08:18:23.104Z,17.95
2022-10-30T08:20:52.322Z,18.23
2022-10-30T08:23:22.771Z,18.15
2022-10-30T08:25:51.935Z,19.23
2022-10-30T08:28:21.778Z,17.77
2022-10-30T08:30:50.952Z,19.30
2022-10-30T08:33:21.172Z,19.60
2022-10-30T08:35:52.955Z,18.42
2022-10-30T08:38:22.507Z,18.30
2022-10-30T08:40:51.685Z,20.58
2022-10-30T08:43:21.710Z,17.95
2022-10-30T08:45:50.826Z,19.02
2022-10-30T08:48:20.038Z,18.58
2022-10-30T08:50:49.282Z,19.20
2022-10-30T08:53:18.497Z,18.70
2022-10-30T08:55:47.621Z,18.30
2022-10-30T08:58:16.816Z,18.73
2022-10-30T09:00:45.936Z,19.85
2022-10-30T09:03:15.533Z,17.70
2022-10-30T09:05:44.730Z,19.65
2022-10-30T09:08:13.852Z,20.75
2022-10-30T09:10:45.952Z,20.13
2022-10-30T09:13:15.237Z,20.88
2022-10-30T09:15:45.015Z,20.60
2022-10-30T09:18:14.169Z,19.30
2022-10-30T09:20:43.405Z,21.10
2022-10-30T09:23:12.605Z,24.10
2022-10-30T09:25:41.795Z,21.58
2022-10-30T09:28:11.041Z,22.73
2022-10-30T09:30:40.209Z,23.25
2022-10-30T09:33:10.226Z,22.05
2022-10-30T09:35:39.436Z,22.00
2022-10-30T09:38:08.641Z,23.75
2022-10-30T09:41:14.885Z,24.52
2022-10-30T09:44:30.885Z,24.80
2022-10-30T09:47:09.734Z,24.00
2022-10-30T09:49:56.755Z,24.67
2022-10-30T09:52:40.419Z,25.77
2022-10-30T09:55:22.109Z,25.45
2022-10-30T09:58:05.010Z,26.27
2022-10-30T10:01:00.711Z,27.50
2022-10-30T10:04:08.897Z,27.83
2022-10-30T10:06:45.828Z,29.25
2022-10-30T10:09:22.132Z,27.38
2022-10-30T10:12:09.704Z,26.42
2022-10-30T10:14:45.470Z,27.05
2022-10-30T10:17:31.847Z,28.15
2022-10-30T10:20:03.293Z,29.27
2022-10-30T10:22:39.160Z,27.88
2022-10-30T10:25:17.511Z,28.30
2022-10-30T10:28:13.588Z,27.65
2022-10-30T10:31:18.668Z,29.08
2022-10-30T10:34:24.718Z,26.35
2022-10-30T10:37:22.165Z,26.45
2022-10-30T10:40:42.489Z,26.25
2022-10-30T10:43:45.328Z,27.27
2022-10-30T10:46:38.322Z,28.48
2022-10-30T10:49:21.972Z,28.27
2022-10-30T10:52:03.457Z,29.00
2022-10-30T10:54:46.270Z,29.45
2022-10-30T10:57:30.530Z,28.75
2022-10-30T11:00:14.499Z,29.42
2022-10-30T11:03:06.140Z,30.65
2022-10-30T11:06:16.264Z,32.53
2022-10-30T11:08:45.412Z,32.65
2022-10-30T11:11:15.598Z,33.78
2022-10-30T11:13:48.785Z,35.63
2022-10-30T11:16:39.158Z,34.40
2022-10-30T11:19:11.448Z,34.40
2022-10-30T11:21:50.669Z,33.28
2022-10-30T11:24:37.123Z,35.28
2022-10-30T11:27:38.232Z,38.17
2022-10-30T11:30:18.518Z,38.40
2022-10-30T11:32:48.151Z,36.70
2022-10-30T11:35:21.435Z,37.30
2022-10-30T11:38:15.393Z,36.83
2022-10-30T11:40:52.807Z,34.63
2022-10-30T11:43:27.146Z,34.87
2022-10-30T11:45:56.714Z,35.90
2022-10-30T11:48:38.919Z,36.25
2022-10-30T11:51:08.346Z,36.38
2022-10-30T11:53:49.854Z,35.45
2022-10-30T11:56:24.143Z,38.10
2022-10-30T11:59:00.229Z,37.22
2022-10-30T12:01:39.974Z,38.35
2022-10-30T12:04:26.228Z,38.80
2022-10-30T12:07:38.269Z,37.25
2022-10-30T12:10:26.834Z,37.28
2022-10-30T12:12:57.096Z,38.40
2022-10-30T12:15:30.278Z,39.63
2022-10-30T12:18:06.517Z,37.05
2022-10-30T12:20:39.705Z,39.75
2022-10-30T12:23:23.022Z,40.00
2022-10-30T12:26:00.271Z,37.25
2022-10-30T12:28:33.799Z,36.53
2022-10-30T12:31:21.468Z,38.47
2022-10-30T12:34:00.387Z,40.03
2022-10-30T12:36:38.846Z,38.60
2022-10-30T12:39:14.291Z,39.65
2022-10-30T12:41:49.827Z,38.65
2022-10-30T12:44:35.375Z,37.85
2022-10-30T12:47:21.462Z,38.08
2022-10-30T12:50:02.124Z,36.33
2022-10-30T12:52:41.625Z,37.75
2022-10-30T12:55:42.802Z,39.22
2022-10-30T12:58:29.428Z,37.63
2022-10-30T13:01:35.506Z,40.63
2022-10-30T13:04:47.419Z,41.83
2022-10-30T13:07:25.146Z,43.00
2022-10-30T13:10:33.471Z,43.33
2022-10-30T13:13:19.336Z,41.30
2022-10-30T13:15:59.385Z,40.83
2022-10-30T13:18:34.689Z,42.72
2022-10-30T13:21:12.686Z,43.05
2022-10-30T13:23:55.844Z,41.25
2022-10-30T13:26:39.966Z,42.58
2022-10-30T13:29:35.159Z,41.78
2022-10-30T13:32:13.231Z,43.58
2022-10-30T13:34:57.729Z,44.38
2022-10-30T13:37:53.724Z,47.50
2022-10-30T13:40:43.848Z,46.17
2022-10-30T13:43:42.724Z,42.92
2022-10-30T13:46:48.326Z,42.92
2022-10-30T13:50:07.117Z,42.38
2022-10-30T13:52:47.905Z,41.45
2022-10-30T13:55:31.082Z,41.65
2022-10-30T13:58:41.550Z,44.53
2022-10-30T14:01:29.767Z,42.53
2022-10-30T14:07:07.885Z,40.75
2022-10-30T14:09:52.302Z,41.90
2022-10-30T14:12:58.878Z,41.40
2022-10-30T14:15:35.537Z,44.20
2022-10-30T14:18:18.876Z,46.83
2022-10-30T14:20:53.068Z,46.90
2022-10-30T14:23:28.881Z,50.05
2022-10-30T14:26:14.167Z,49.58
2022-10-30T14:28:47.194Z,46.25
2022-10-30T14:31:33.437Z,48.10
2022-10-30T14:34:02.692Z,46.90
2022-10-30T14:36:41.060Z,47.28
2022-10-30T14:39:13.318Z,46.58
2022-10-30T14:41:57.494Z,47.88
2022-10-30T14:44:38.095Z,48.88
2022-10-30T14:47:59.421Z,49.00
2022-10-30T14:50:28.620Z,46.88
2022-10-30T14:53:35.243Z,51.17
2022-10-30T14:56:49.588Z,48.90
2022-10-30T14:59:18.691Z,49.40
2022-10-30T15:02:02.700Z,45.58
2022-10-30T15:05:16.805Z,48.25
2022-10-30T15:08:13.418Z,49.05
2022-10-30T15:11:03.067Z,49.05
2022-10-30T15:13:32.386Z,48.60
2022-10-30T15:16:10.125Z,50.53
2022-10-30T15:18:42.145Z,51.40
2022-10-30T15:21:24.038Z,51.30
2022-10-30T15:23:58.674Z,48.15
2022-10-30T15:26:37.073Z,49.15
2022-10-30T15:31:36.229Z,50.42
2022-10-30T15:34:27.491Z,50.67
2022-10-30T15:36:56.900Z,50.88
2022-10-30T15:39:26.898Z,51.10
2022-10-30T15:42:03.429Z,51.67
2022-10-30T15:44:36.567Z,53.78
2022-10-30T15:47:18.269Z,52.70
2022-10-30T15:49:58.147Z,53.70
2022-10-30T15:52:31.743Z,50.95
2022-10-30T15:55:10.495Z,50.83
2022-10-30T15:58:03.991Z,50.80
2022-10-30T16:00:38.254Z,50.70
2022-10-30T16:03:17.294Z,50.83
2022-10-30T16:05:47.942Z,50.78
2022-10-30T16:08:26.967Z,51.20
2022-10-30T16:10:57.576Z,49.95
2022-10-30T16:13:32.795Z,51.45
2022-10-30T16:16:05.044Z,50.58
2022-10-30T16:18:37.296Z,50.97
2022-10-30T16:21:16.009Z,50.22
2022-10-30T16:23:58.243Z,51.20
2022-10-30T16:26:39.759Z,50.92
2022-10-30T16:29:25.922Z,49.58
2022-10-30T16:31:56.198Z,50.00
2022-10-30T16:34:35.834Z,51.17
2022-10-30T16:37:33.057Z,48.97
2022-10-30T16:40:16.442Z,50.92
2022-10-30T16:42:56.392Z,51.50
2022-10-30T16:45:25.721Z,52.80
2022-10-30T16:48:08.460Z,50.83
2022-10-30T16:50:40.484Z,52.50
2022-10-30T16:53:25.161Z,53.53
2022-10-30T16:55:57.569Z,50.10
2022-10-30T16:58:33.893Z,51.75
2022-10-30T17:01:08.440Z,50.65
2022-10-30T17:03:42.682Z,51.83
2022-10-30T17:06:48.283Z,53.78
2022-10-30T17:09:29.807Z,55.67
2022-10-30T17:12:20.038Z,54.83
2022-10-30T17:15:21.878Z,53.45
2022-10-30T17:18:16.686Z,56.95
2022-10-30T17:20:46.077Z,54.63
2022-10-30T17:23:22.083Z,55.45
2022-10-30T17:25:51.367Z,56.05
2022-10-30T17:28:35.165Z,54.67
2022-10-30T17:31:53.231Z,57.55
2022-10-30T17:36:51.873Z,57.03
2022-10-30T17:39:21.050Z,56.95
2022-10-30T17:41:58.743Z,57.53
2022-10-30T17:44:31.448Z,57.23
2022-10-30T17:47:02.291Z,56.47
2022-10-30T17:49:33.731Z,57.05
2022-10-30T17:52:03.439Z,55.95
2022-10-30T17:54:33.056Z,54.83
2022-10-30T17:57:02.145Z,55.38
2022-10-30T17:59:31.413Z,55.15
2022-10-30T18:02:02.236Z,55.92
2022-10-30T18:04:31.544Z,56.30
2022-10-30T18:07:00.642Z,54.13
2022-10-30T18:09:29.774Z,52.45
2022-10-30T18:11:58.932Z,54.28
2022-10-30T18:14:28.132Z,53.53
2022-10-30T18:16:57.405Z,53.53
2022-10-30T18:19:26.566Z,54.42
2022-10-30T18:21:55.905Z,53.03
2022-10-30T18:24:25.076Z,53.25
2022-10-30T18:26:55.839Z,52.13
2022-10-30T18:29:25.151Z,50.65
2022-10-30T18:31:54.383Z,49.17
2022-10-30T18:34:23.548Z,48.28
2022-10-30T18:36:52.732Z,49.05
2022-10-30T18:39:21.829Z,49.00
2022-10-30T18:41:51.191Z,50.60
2022-10-30T18:44:21.494Z,47.75
2022-10-30T18:46:50.548Z,49.75
2022-10-30T18:49:21.447Z,52.65
2022-10-30T18:51:50.504Z,52.05
2022-10-30T18:54:19.559Z,53.42
2022-10-30T18:56:48.632Z,52.58
2022-10-30T18:59:17.687Z,53.08
2022-10-30T19:01:46.938Z,53.00
2022-10-30T19:04:21.667Z,51.40
2022-10-30T19:06:51.928Z,51.38
2022-10-30T19:09:20.990Z,50.63
2022-10-30T19:11:50.090Z,54.00
2022-10-30T19:14:19.228Z,50.28
2022-10-30T19:16:48.284Z,49.33
2022-10-30T19:19:18.932Z,50.97
2022-10-30T19:21:47.977Z,51.95
2022-10-30T19:24:18.705Z,50.42
2022-10-30T19:26:47.859Z,51.67
2022-10-30T19:29:16.961Z,51.00
2022-10-30T19:31:46.082Z,50.17
2022-10-30T19:34:15.208Z,51.22
2022-10-30T19:36:44.960Z,52.05
2022-10-30T19:39:18.866Z,52.17
2022-10-30T19:41:47.903Z,51.38
2022-10-30T19:44:17.813Z,56.17
2022-10-30T19:46:47.189Z,51.78
2022-10-30T19:49:22.007Z,51.47
2022-10-30T19:51:51.092Z,50.97
2022-10-30T19:54:20.516Z,53.53
2022-10-30T19:56:49.636Z,53.03
2022-10-30T19:59:18.852Z,52.97
2022-10-30T20:01:48.007Z,52.35
2022-10-30T20:04:17.133Z,51.25
2022-10-30T20:06:46.210Z,53.40
2022-10-30T20:09:15.331Z,53.53
2022-10-30T20:11:44.541Z,54.40
2022-10-30T20:14:13.594Z,57.13
2022-10-30T20:16:42.651Z,57.72
2022-10-30T20:19:32.919Z,54.92
2022-10-30T20:22:02.061Z,57.58
2022-10-30T20:24:31.130Z,57.63
2022-10-30T20:27:00.527Z,57.65
2022-10-30T20:29:30.840Z,57.80
2022-10-30T20:31:59.934Z,59.10
2022-10-30T20:34:28.997Z,60.92
2022-10-30T20:36:58.082Z,61.30
2022-10-30T20:39:27.147Z,59.55
2022-10-30T20:41:56.233Z,59.58
2022-10-30T20:44:25.262Z,60.78
2022-10-30T20:46:54.315Z,61.83
2022-10-30T20:49:23.368Z,62.17
2022-10-30T20:51:52.497Z,63.28
2022-10-30T20:54:21.632Z,62.42
2022-10-30T20:56:50.621Z,62.83
2022-10-30T20:59:19.727Z,61.83
2022-10-30T21:01:49.302Z,61.10
2022-10-30T21:04:18.445Z,60.22
2022-10-30T21:06:47.566Z,60.97
2022-10-30T21:09:16.711Z,58.65
2022-10-30T21:11:45.799Z,60.10
2022-10-30T21:14:15.085Z,59.15
2022-10-30T21:16:44.144Z,59.45
2022-10-30T21:19:13.247Z,57.67
2022-10-30T21:21:42.429Z,61.05
2022-10-30T21:24:11.742Z,59.45
2022-10-30T21:26:40.833Z,58.80
2022-10-30T21:29:10.359Z,57.42
2022-10-30T21:31:39.410Z,56.65
2022-10-30T21:34:08.555Z,57.40
2022-10-30T21:36:37.986Z,56.67
2022-10-30T21:39:09.255Z,56.92
2022-10-30T21:41:38.376Z,56.60
2022-10-30T21:44:07.643Z,58.58
2022-10-30T21:46:36.729Z,58.40
2022-10-30T21:49:08.798Z,56.63
2022-10-30T21:51:37.891Z,58.45
2022-10-30T21:54:07.132Z,57.85
2022-10-30T21:56:36.465Z,57.35
2022-10-30T21:59:07.726Z,56.97
2022-10-30T22:01:39.633Z,56.50
2022-10-30T22:04:12.221Z,55.50
2022-10-30T22:06:44.824Z,57.15
2022-10-30T22:09:18.442Z,56.15
2022-10-30T22:11:47.597Z,55.40
2022-10-30T22:14:16.724Z,56.92
2022-10-30T22:16:46.213Z,58.78
2022-10-30T22:19:15.343Z,56.08
2022-10-30T22:21:44.399Z,55.95
2022-10-30T22:24:14.665Z,55.83
2022-10-30T22:26:43.836Z,59.05
2022-10-30T22:29:13.763Z,57.47
2022-10-30T22:31:42.830Z,59.90
2022-10-30T22:34:12.022Z,60.88
2022-10-30T22:36:41.078Z,60.15
2022-10-30T22:39:14.737Z,59.30
2022-10-30T22:41:43.979Z,59.17
2022-10-30T22:44:19.599Z,58.42
2022-10-30T22:46:48.727Z,60.10
2022-10-30T22:49:17.885Z,57.20
2022-10-30T22:51:47.149Z,58.80
2022-10-30T22:54:16.374Z,57.92
2022-10-30T22:56:45.561Z,57.47
2022-10-30T22:59:16.035Z,63.33
2022-10-30T23:01:45.564Z,61.65
2022-10-30T23:04:19.069Z,61.20
2022-10-30T23:06:48.163Z,66.80
2022-10-30T23:09:23.099Z,59.38
2022-10-30T23:11:52.671Z,57.95
2022-10-30T23:14:21.920Z,58.70
2022-10-30T23:16:51.092Z,58.88
2022-10-30T23:19:20.224Z,56.53
2022-10-30T23:21:49.474Z,55.90
2022-10-30T23:24:18.608Z,56.65
2022-10-30T23:26:47.771Z,55.75
2022-10-30T23:29:16.962Z,58.92
2022-10-30T23:31:47.074Z,57.35
2022-10-30T23:34:18.420Z,56.83
2022-10-30T23:36:47.690Z,59.70
2022-10-30T23:39:19.277Z,56.45
2022-10-30T23:41:48.640Z,57.08
2022-10-30T23:44:18.496Z,55.88
2022-10-30T23:46:47.702Z,59.13
2022-10-30T23:49:16.831Z,56.15
2022-10-30T23:51:45.933Z,61.17
2022-10-30T23:54:15.091Z,59.47
2022-10-30T23:56:44.223Z,58.83
2022-10-30T23:59:13.334Z,59.88
